createdAt,value
2023-05-10T00:01:24.831Z,95936.31
2023-05-10T00:03:26.803Z,95946.72
2023-05-10T00:05:28.625Z,95947.16
2023-05-10T00:07:30.300Z,95941.13
2023-05-10T00:09:31.822Z,95937.19
2023-05-10T00:11:33.572Z,95942.03
2023-05-10T00:13:35.357Z,95935.81
2023-05-10T00:15:36.906Z,95941.75
2023-05-10T00:17:38.465Z,95938.91
2023-05-10T00:19:39.963Z,95931.84
2023-05-10T00:21:41.599Z,95932.28
2023-05-10T00:23:43.183Z,95936.38
2023-05-10T00:25:44.721Z,95932.47
2023-05-10T00:27:46.246Z,95936.38
2023-05-10T00:29:47.817Z,95937.91
2023-05-10T00:31:49.351Z,95935.50
2023-05-10T00:33:50.956Z,95936.56
2023-05-10T00:35:52.487Z,95948.81
2023-05-10T00:37:54.017Z,95941.84
2023-05-10T00:39:56.060Z,95943.78
2023-05-10T00:41:57.951Z,95944.56
2023-05-10T00:43:59.629Z,95947.66
2023-05-10T00:46:01.771Z,95948.28
2023-05-10T00:48:05.099Z,95948.53
2023-05-10T00:50:07.481Z,95953.53
2023-05-10T00:52:09.552Z,95954.41
2023-05-10T00:54:13.285Z,95947.06
2023-05-10T00:56:15.611Z,95949.72
2023-05-10T00:58:17.683Z,95957.66
2023-05-10T01:00:19.616Z,95952.47
2023-05-10T01:02:21.268Z,95950.91
2023-05-10T01:04:26.377Z,95953.13
2023-05-10T01:06:28.928Z,95945.88
2023-05-10T01:08:30.513Z,95944.56
2023-05-10T01:10:32.772Z,95947.31
2023-05-10T01:12:39.845Z,95941.78
2023-05-10T01:14:41.892Z,95951.25
2023-05-10T01:16:45.520Z,95947.84
2023-05-10T01:18:48.914Z,95940.41
2023-05-10T01:21:04.900Z,95941.97
2023-05-10T01:23:43.396Z,95942.09
2023-05-10T01:25:59.338Z,95943.09
2023-05-10T01:28:35.398Z,95955.34
2023-05-10T01:30:56.412Z,95951.94
2023-05-10T01:33:12.530Z,95956.56
2023-05-10T01:35:18.849Z,95949.44
2023-05-10T01:37:39.708Z,95952.66
2023-05-10T01:39:50.997Z,95957.84
2023-05-10T01:41:56.937Z,95954.22
2023-05-10T01:44:06.965Z,95953.63
2023-05-10T01:46:17.399Z,95960.25
2023-05-10T01:48:21.684Z,95954.59
2023-05-10T01:50:31.261Z,95955.00
2023-05-10T01:52:39.546Z,95956.09
2023-05-10T01:54:45.578Z,95963.50
2023-05-10T01:56:54.096Z,95955.78
2023-05-10T01:58:56.378Z,95967.06
2023-05-10T02:01:01.858Z,95967.38
2023-05-10T02:03:07.854Z,95969.69
2023-05-10T02:05:13.160Z,95965.22
2023-05-10T02:07:15.674Z,95968.94
2023-05-10T02:09:18.895Z,95967.81
2023-05-10T02:11:22.108Z,95980.97
2023-05-10T02:13:27.211Z,95982.06
2023-05-10T02:15:30.755Z,95983.88
2023-05-10T02:17:33.648Z,95978.06
2023-05-10T02:19:37.549Z,95987.28
2023-05-10T02:21:40.422Z,95984.09
2023-05-10T02:23:43.791Z,95991.78
2023-05-10T02:25:46.885Z,95997.03
2023-05-10T02:27:49.877Z,95987.72
2023-05-10T02:29:52.691Z,95999.66
2023-05-10T02:31:55.947Z,95990.72
2023-05-10T02:33:58.888Z,95995.22
2023-05-10T02:36:02.930Z,95995.31
2023-05-10T02:38:06.069Z,95995.25
2023-05-10T02:40:09.468Z,95992.53
2023-05-10T02:42:16.726Z,96000.31
2023-05-10T02:44:23.730Z,95999.34
2023-05-10T02:46:25.694Z,95997.94
2023-05-10T02:48:27.399Z,96002.81
2023-05-10T02:50:33.269Z,96000.03
2023-05-10T02:52:45.254Z,96002.16
2023-05-10T02:54:51.590Z,96004.50
2023-05-10T02:56:58.665Z,96004.00
2023-05-10T02:59:00.266Z,96002.59
2023-05-10T03:01:01.896Z,96000.06
2023-05-10T03:03:04.044Z,95997.91
2023-05-10T03:05:06.070Z,96006.34
2023-05-10T03:07:08.442Z,96002.94
2023-05-10T03:09:12.005Z,96001.06
2023-05-10T03:11:22.688Z,96006.34
2023-05-10T03:13:40.623Z,96009.22
2023-05-10T03:15:50.096Z,96001.59
2023-05-10T03:18:03.917Z,96004.84
2023-05-10T03:20:12.549Z,96002.44
2023-05-10T03:22:23.509Z,96010.50
2023-05-10T03:24:29.129Z,96011.75
2023-05-10T03:26:33.785Z,96011.66
2023-05-10T03:28:44.677Z,96014.72
2023-05-10T03:30:47.217Z,96015.09
2023-05-10T03:32:49.017Z,96016.41
2023-05-10T03:34:52.540Z,96015.09
2023-05-10T03:36:54.634Z,96017.22
2023-05-10T03:38:56.266Z,96017.19
2023-05-10T03:40:58.219Z,96015.72
2023-05-10T03:43:00.406Z,96026.75
2023-05-10T03:45:02.014Z,96031.19
2023-05-10T03:47:04.004Z,96032.50
2023-05-10T03:49:06.455Z,96025.53
2023-05-10T03:51:08.128Z,96034.22
2023-05-10T03:53:09.830Z,96034.44
2023-05-10T03:55:11.997Z,96032.22
2023-05-10T03:57:13.908Z,96034.72
2023-05-10T03:59:16.261Z,96037.38
2023-05-10T04:01:17.753Z,96039.06
2023-05-10T04:03:19.379Z,96042.56
2023-05-10T04:05:21.246Z,96051.09
2023-05-10T04:07:22.887Z,96051.88
2023-05-10T04:09:25.002Z,96053.47
2023-05-10T04:11:26.804Z,96050.16
2023-05-10T04:13:28.549Z,96047.13
2023-05-10T04:15:30.044Z,96057.19
2023-05-10T04:17:32.506Z,96051.91
2023-05-10T04:19:34.777Z,96060.09
2023-05-10T04:21:37.563Z,96053.59
2023-05-10T04:23:39.586Z,96060.94
2023-05-10T04:25:41.806Z,96057.41
2023-05-10T04:27:43.630Z,96061.81
2023-05-10T04:29:45.502Z,96066.56
2023-05-10T04:31:46.986Z,96065.47
2023-05-10T04:33:48.532Z,96069.84
2023-05-10T04:35:50.057Z,96062.94
2023-05-10T04:37:52.597Z,96059.25
2023-05-10T04:39:54.778Z,96069.72
2023-05-10T04:41:56.539Z,96072.22
2023-05-10T04:43:58.078Z,96077.84
2023-05-10T04:45:59.767Z,96079.06
2023-05-10T04:48:01.844Z,96086.19
2023-05-10T04:50:07.275Z,96077.31
2023-05-10T04:52:09.321Z,96083.47
2023-05-10T04:54:11.294Z,96097.56
2023-05-10T04:56:13.136Z,96093.56
2023-05-10T04:58:14.868Z,96095.50
2023-05-10T05:00:17.233Z,96092.91
2023-05-10T05:02:19.154Z,96094.75
2023-05-10T05:04:20.692Z,96100.38
2023-05-10T05:06:22.302Z,96096.38
2023-05-10T05:08:24.846Z,96096.78
2023-05-10T05:10:26.340Z,96097.03
2023-05-10T05:12:27.811Z,96099.63
2023-05-10T05:14:29.601Z,96110.97
2023-05-10T05:16:32.623Z,96111.09
2023-05-10T05:18:34.390Z,96104.28
2023-05-10T05:20:36.150Z,96113.47
2023-05-10T05:22:38.305Z,96110.53
2023-05-10T05:24:39.828Z,96113.91
2023-05-10T05:26:41.519Z,96116.38
2023-05-10T05:28:43.036Z,96117.69
2023-05-10T05:30:45.355Z,96127.97
2023-05-10T05:32:48.245Z,96126.66
2023-05-10T05:34:49.923Z,96126.53
2023-05-10T05:36:51.430Z,96123.59
2023-05-10T05:38:53.076Z,96119.06
2023-05-10T05:40:54.876Z,96115.19
2023-05-10T05:42:56.353Z,96128.25
2023-05-10T05:44:58.383Z,96134.56
2023-05-10T05:46:59.969Z,96130.28
2023-05-10T05:49:01.457Z,96130.50
2023-05-10T05:51:03.429Z,96125.50
2023-05-10T05:53:06.999Z,96129.72
2023-05-10T05:55:09.097Z,96129.81
2023-05-10T05:57:10.983Z,96137.50
2023-05-10T05:59:12.724Z,96121.97
2023-05-10T06:01:14.420Z,96131.09
2023-05-10T06:03:16.529Z,96136.16
2023-05-10T06:05:18.633Z,96141.34
2023-05-10T06:07:20.257Z,96144.25
2023-05-10T06:09:22.148Z,96143.09
2023-05-10T06:11:23.867Z,96145.25
2023-05-10T06:13:25.549Z,96143.97
2023-05-10T06:15:28.103Z,96145.22
2023-05-10T06:17:29.737Z,96138.69
2023-05-10T06:19:31.979Z,96147.09
2023-05-10T06:21:33.531Z,96149.69
2023-05-10T06:23:35.292Z,96155.44
2023-05-10T06:25:36.837Z,96152.56
2023-05-10T06:27:38.365Z,96165.09
2023-05-10T06:29:40.253Z,96153.38
2023-05-10T06:31:41.930Z,96157.75
2023-05-10T06:33:43.736Z,96158.38
2023-05-10T06:35:45.483Z,96163.50
2023-05-10T06:37:47.703Z,96164.94
2023-05-10T06:39:49.723Z,96164.84
2023-05-10T06:41:51.441Z,96163.94
2023-05-10T06:43:54.857Z,96163.44
2023-05-10T06:45:56.762Z,96163.50
2023-05-10T06:47:58.367Z,96167.50
2023-05-10T06:50:00.176Z,96166.53
2023-05-10T06:52:02.126Z,96173.34
2023-05-10T06:54:04.300Z,96177.44
2023-05-10T06:56:06.094Z,96172.47
2023-05-10T06:58:07.791Z,96177.19
2023-05-10T07:00:10.701Z,96184.41
2023-05-10T07:02:12.552Z,96179.75
2023-05-10T07:04:14.717Z,96178.22
2023-05-10T07:06:29.480Z,96184.63
2023-05-10T07:08:35.370Z,96186.25
2023-05-10T07:10:37.179Z,96186.50
2023-05-10T07:12:39.448Z,96182.03
2023-05-10T07:14:41.145Z,96185.84
2023-05-10T07:16:43.060Z,96189.41
2023-05-10T07:18:44.856Z,96189.19
2023-05-10T07:20:46.496Z,96195.03
2023-05-10T07:22:48.033Z,96189.13
2023-05-10T07:24:49.874Z,96197.34
2023-05-10T07:26:51.404Z,96190.09
2023-05-10T07:28:53.043Z,96199.25
2023-05-10T07:30:54.680Z,96197.00
2023-05-10T07:32:56.402Z,96191.16
2023-05-10T07:34:57.997Z,96197.00
2023-05-10T07:37:00.026Z,96191.25
2023-05-10T07:39:01.782Z,96201.00
2023-05-10T07:41:03.526Z,96207.25
2023-05-10T07:43:05.043Z,96211.75
2023-05-10T07:45:07.370Z,96206.31
2023-05-10T07:47:09.166Z,96199.13
2023-05-10T07:49:10.970Z,96203.41
2023-05-10T07:51:12.918Z,96204.19
2023-05-10T07:53:14.517Z,96210.34
2023-05-10T07:55:16.986Z,96206.91
2023-05-10T07:57:19.258Z,96209.66
2023-05-10T07:59:21.015Z,96216.47
2023-05-10T08:01:23.552Z,96214.66
2023-05-10T08:03:25.754Z,96217.56
2023-05-10T08:05:27.513Z,96223.69
2023-05-10T08:07:29.125Z,96221.09
2023-05-10T08:09:30.637Z,96227.91
2023-05-10T08:11:33.716Z,96221.88
2023-05-10T08:13:36.535Z,96218.00
2023-05-10T08:15:38.120Z,96226.25
2023-05-10T08:17:40.289Z,96225.13
2023-05-10T08:19:41.914Z,96230.06
2023-05-10T08:21:43.484Z,96230.00
2023-05-10T08:23:45.251Z,96234.63
2023-05-10T08:25:46.936Z,96229.88
2023-05-10T08:27:48.455Z,96242.25
2023-05-10T08:29:50.701Z,96238.69
2023-05-10T08:31:52.355Z,96242.59
2023-05-10T08:33:53.958Z,96244.94
2023-05-10T08:35:55.537Z,96249.25
2023-05-10T08:37:57.047Z,96243.63
2023-05-10T08:39:58.675Z,96240.91
2023-05-10T08:42:02.494Z,96251.66
2023-05-10T08:44:06.297Z,96257.53
2023-05-10T08:46:10.024Z,96254.22
2023-05-10T08:48:12.963Z,96260.84
2023-05-10T08:50:17.171Z,96261.44
2023-05-10T08:52:19.555Z,96254.53
2023-05-10T08:54:22.681Z,96261.16
2023-05-10T08:56:25.066Z,96260.03
2023-05-10T08:58:26.651Z,96254.69
2023-05-10T09:00:29.524Z,96262.41
2023-05-10T09:02:31.483Z,96263.41
2023-05-10T09:04:33.980Z,96265.34
2023-05-10T09:06:36.254Z,96262.53
2023-05-10T09:08:38.389Z,96275.44
2023-05-10T09:10:41.169Z,96269.75
2023-05-10T09:12:45.200Z,96273.47
2023-05-10T09:14:47.387Z,96272.91
2023-05-10T09:16:48.973Z,96271.56
2023-05-10T09:18:50.831Z,96273.06
2023-05-10T09:20:52.790Z,96275.56
2023-05-10T09:22:54.369Z,96274.69
2023-05-10T09:25:13.336Z,96284.97
2023-05-10T09:27:14.932Z,96279.19
2023-05-10T09:29:17.850Z,96285.34
2023-05-10T09:31:21.258Z,96285.16
2023-05-10T09:33:23.233Z,96287.38
2023-05-10T09:35:29.700Z,96291.78
2023-05-10T09:37:31.621Z,96290.47
2023-05-10T09:39:35.353Z,96290.00
2023-05-10T09:41:37.861Z,96295.00
2023-05-10T09:43:39.432Z,96291.31
2023-05-10T09:45:42.222Z,96294.59
2023-05-10T09:47:43.926Z,96305.06
2023-05-10T09:49:51.013Z,96292.09
2023-05-10T09:52:02.384Z,96298.56
2023-05-10T09:54:17.828Z,96297.06
2023-05-10T09:56:35.039Z,96296.59
2023-05-10T09:58:39.085Z,96300.84
2023-05-10T10:00:42.628Z,96287.41
2023-05-10T10:02:46.039Z,96296.47
2023-05-10T10:04:50.847Z,96294.81
2023-05-10T10:07:01.363Z,96300.44
2023-05-10T10:09:03.017Z,96290.75
2023-05-10T10:11:05.176Z,96306.97
2023-05-10T10:13:07.265Z,96300.84
2023-05-10T10:15:09.973Z,96302.78
2023-05-10T10:17:12.857Z,96288.28
2023-05-10T10:19:15.704Z,96293.28
2023-05-10T10:21:17.838Z,96292.31
2023-05-10T10:23:19.478Z,96295.31
2023-05-10T10:25:24.995Z,96291.53
2023-05-10T10:27:42.329Z,96298.56
2023-05-10T10:29:58.960Z,96295.56
2023-05-10T10:32:31.354Z,96293.53
2023-05-10T10:34:33.318Z,96291.91
2023-05-10T10:36:46.646Z,96299.31
2023-05-10T10:38:48.115Z,96303.72
2023-05-10T10:41:02.457Z,96306.34
2023-05-10T10:43:27.060Z,96306.16
2023-05-10T10:45:28.689Z,96297.66
2023-05-10T10:47:33.878Z,96305.63
2023-05-10T10:49:44.767Z,96301.56
2023-05-10T10:52:19.244Z,96300.06
2023-05-10T10:54:29.319Z,96301.19
2023-05-10T10:56:30.999Z,96302.16
2023-05-10T10:58:35.299Z,96305.72
2023-05-10T11:00:38.821Z,96308.75
2023-05-10T11:02:43.407Z,96314.03
2023-05-10T11:04:47.770Z,96311.97
2023-05-10T11:06:49.436Z,96321.78
2023-05-10T11:08:53.637Z,96311.25
2023-05-10T11:11:00.831Z,96314.69
2023-05-10T11:13:09.405Z,96306.72
2023-05-10T11:15:11.027Z,96308.91
2023-05-10T11:17:30.377Z,96309.16
2023-05-10T11:19:32.312Z,96307.91
2023-05-10T11:21:35.111Z,96311.66
2023-05-10T11:23:51.552Z,96318.09
2023-05-10T11:25:53.059Z,96320.03
2023-05-10T11:27:54.568Z,96307.63
2023-05-10T11:29:56.367Z,96316.16
2023-05-10T11:32:00.143Z,96324.31
2023-05-10T11:34:06.191Z,96313.78
2023-05-10T11:36:12.088Z,96317.84
2023-05-10T11:38:14.385Z,96320.28
2023-05-10T11:40:17.353Z,96347.66
2023-05-10T11:42:19.250Z,96321.00
2023-05-10T11:44:20.976Z,96329.13
2023-05-10T11:46:24.895Z,96325.38
2023-05-10T11:48:26.466Z,96331.28
2023-05-10T11:50:28.268Z,96334.25
2023-05-10T11:52:37.594Z,96345.34
2023-05-10T11:54:46.227Z,96344.59
2023-05-10T11:56:47.788Z,96347.31
2023-05-10T11:58:58.338Z,96347.63
2023-05-10T12:01:00.905Z,96355.28
2023-05-10T12:03:03.340Z,96354.25
2023-05-10T12:05:07.096Z,96360.66
2023-05-10T12:07:08.906Z,96362.16
2023-05-10T12:09:10.712Z,96359.88
2023-05-10T12:11:13.722Z,96358.75
2023-05-10T12:13:16.480Z,96356.88
2023-05-10T12:15:22.214Z,96361.75
2023-05-10T12:17:28.508Z,96365.50
2023-05-10T12:19:38.073Z,96361.09
2023-05-10T12:21:39.980Z,96367.00
2023-05-10T12:23:42.457Z,96364.34
2023-05-10T12:25:44.499Z,96373.25
2023-05-10T12:27:57.144Z,96373.44
2023-05-10T12:30:01.188Z,96381.00
2023-05-10T12:32:03.752Z,96367.91
2023-05-10T12:34:05.462Z,96378.00
2023-05-10T12:36:07.769Z,96376.00
2023-05-10T12:38:29.872Z,96373.53
2023-05-10T12:40:31.890Z,96377.53
2023-05-10T12:42:33.983Z,96383.72
2023-05-10T12:44:35.809Z,96381.66
2023-05-10T12:46:37.615Z,96376.09
2023-05-10T12:48:40.898Z,96379.06
2023-05-10T12:50:42.608Z,96388.25
2023-05-10T12:52:44.198Z,96387.50
2023-05-10T12:54:45.830Z,96384.91
2023-05-10T12:56:47.342Z,96387.16
2023-05-10T12:58:49.183Z,96392.63
2023-05-10T13:00:52.656Z,96390.38
2023-05-10T13:02:54.941Z,96387.03
2023-05-10T13:04:56.571Z,96379.75
2023-05-10T13:06:59.892Z,96390.31
2023-05-10T13:09:01.585Z,96388.53
2023-05-10T13:11:03.817Z,96389.28
2023-05-10T13:13:06.167Z,96394.97
2023-05-10T13:15:08.573Z,96396.59
2023-05-10T13:17:10.203Z,96392.00
2023-05-10T13:19:12.665Z,96393.97
2023-05-10T13:21:14.483Z,96390.25
2023-05-10T13:23:16.139Z,96389.63
2023-05-10T13:25:18.166Z,96389.66
2023-05-10T13:27:19.821Z,96385.25
2023-05-10T13:29:23.402Z,96392.22
2023-05-10T13:31:25.011Z,96391.69
2023-05-10T13:33:27.573Z,96387.88
2023-05-10T13:35:29.121Z,96388.28
2023-05-10T13:37:32.182Z,96386.03
2023-05-10T13:39:35.682Z,96389.28
2023-05-10T13:41:37.955Z,96384.53
2023-05-10T13:43:39.558Z,96392.81
2023-05-10T13:45:41.132Z,96391.59
2023-05-10T13:47:42.624Z,96387.50
2023-05-10T13:49:44.347Z,96395.66
2023-05-10T13:51:46.071Z,96388.41
2023-05-10T13:53:48.094Z,96384.88
2023-05-10T13:55:50.000Z,96392.19
2023-05-10T13:57:52.083Z,96382.06
2023-05-10T13:59:55.878Z,96396.47
2023-05-10T14:02:00.963Z,96394.13
2023-05-10T14:04:03.235Z,96375.97
2023-05-10T14:06:04.876Z,96380.66
2023-05-10T14:08:06.723Z,96375.31
2023-05-10T14:10:08.623Z,96376.31
2023-05-10T14:12:10.539Z,96365.53
2023-05-10T14:14:13.547Z,96373.00
2023-05-10T14:16:16.149Z,96365.88
2023-05-10T14:18:18.312Z,96366.00
2023-05-10T14:20:20.076Z,96365.75
2023-05-10T14:22:21.915Z,96366.22
2023-05-10T14:24:23.866Z,96358.44
2023-05-10T14:26:26.309Z,96360.81
2023-05-10T14:28:27.967Z,96365.06
2023-05-10T14:30:29.617Z,96353.44
2023-05-10T14:32:33.234Z,96352.75
2023-05-10T14:34:35.146Z,96363.44
2023-05-10T14:36:36.987Z,96360.41
2023-05-10T14:38:38.550Z,96370.81
2023-05-10T14:40:40.434Z,96365.41
2023-05-10T14:42:43.455Z,96364.50
2023-05-10T14:44:44.985Z,96360.78
2023-05-10T14:46:46.498Z,96355.94
2023-05-10T14:48:48.151Z,96361.06
2023-05-10T14:50:51.180Z,96357.56
2023-05-10T14:52:52.760Z,96354.34
2023-05-10T14:54:54.853Z,96362.25
2023-05-10T14:56:56.412Z,96354.50
2023-05-10T14:58:57.999Z,96360.13
2023-05-10T15:01:00.569Z,96366.66
2023-05-10T15:03:03.572Z,96357.25
2023-05-10T15:05:05.772Z,96356.09
2023-05-10T15:07:07.715Z,96359.63
2023-05-10T15:09:09.843Z,96359.09
2023-05-10T15:11:11.406Z,96361.66
2023-05-10T15:13:12.973Z,96356.88
2023-05-10T15:15:14.846Z,96363.75
2023-05-10T15:17:17.150Z,96359.00
2023-05-10T15:19:21.260Z,96358.19
2023-05-10T15:21:22.792Z,96366.97
2023-05-10T15:23:24.384Z,96366.16
2023-05-10T15:25:26.143Z,96370.13
2023-05-10T15:27:27.788Z,96369.63
2023-05-10T15:29:30.545Z,96369.19
2023-05-10T15:31:32.088Z,96368.94
2023-05-10T15:33:33.704Z,96378.34
2023-05-10T15:35:36.702Z,96378.88
2023-05-10T15:37:39.132Z,96379.53
2023-05-10T15:39:40.968Z,96384.72
2023-05-10T15:41:42.818Z,96380.91
2023-05-10T15:43:44.547Z,96380.84
2023-05-10T15:45:46.396Z,96387.69
2023-05-10T15:47:48.924Z,96393.81
2023-05-10T15:49:50.689Z,96387.94
2023-05-10T15:51:52.211Z,96385.00
2023-05-10T15:54:05.954Z,96387.13
2023-05-10T15:56:09.162Z,96395.06
2023-05-10T15:58:11.567Z,96395.69
2023-05-10T16:00:14.227Z,96398.00
2023-05-10T16:02:15.985Z,96395.09
2023-05-10T16:04:18.306Z,96394.59
2023-05-10T16:06:20.061Z,96406.31
2023-05-10T16:08:21.692Z,96401.78
2023-05-10T16:10:23.397Z,96402.88
2023-05-10T16:12:25.005Z,96400.13
2023-05-10T16:14:26.720Z,96403.06
2023-05-10T16:16:28.328Z,96401.78
2023-05-10T16:18:29.950Z,96396.94
2023-05-10T16:20:32.993Z,96408.91
2023-05-10T16:22:35.468Z,96399.16
2023-05-10T16:24:36.979Z,96404.66
2023-05-10T16:26:40.843Z,96403.59
2023-05-10T16:28:42.846Z,96407.03
2023-05-10T16:30:44.486Z,96411.06
2023-05-10T16:32:46.105Z,96414.28
2023-05-10T16:34:47.979Z,96412.88
2023-05-10T16:36:49.919Z,96408.00
2023-05-10T16:38:52.156Z,96406.41
2023-05-10T16:40:54.228Z,96411.34
2023-05-10T16:42:55.728Z,96420.19
2023-05-10T16:44:57.357Z,96415.75
2023-05-10T16:46:59.186Z,96425.44
2023-05-10T16:49:01.377Z,96414.63
2023-05-10T16:51:04.468Z,96414.81
2023-05-10T16:53:06.593Z,96409.53
2023-05-10T16:55:08.626Z,96413.56
2023-05-10T16:57:10.638Z,96411.44
2023-05-10T16:59:12.153Z,96415.88
2023-05-10T17:01:13.795Z,96409.91
2023-05-10T17:03:15.927Z,96415.50
2023-05-10T17:05:18.109Z,96421.44
2023-05-10T17:07:20.099Z,96420.16
2023-05-10T17:09:21.931Z,96414.66
2023-05-10T17:11:23.500Z,96418.28
2023-05-10T17:13:24.984Z,96416.13
2023-05-10T17:15:26.794Z,96419.91
2023-05-10T17:17:28.682Z,96419.56
2023-05-10T17:19:30.636Z,96426.13
2023-05-10T17:21:32.388Z,96424.53
2023-05-10T17:23:34.340Z,96419.69
2023-05-10T17:25:36.620Z,96426.47
2023-05-10T17:27:38.363Z,96424.88
2023-05-10T17:29:40.032Z,96421.59
2023-05-10T17:31:42.247Z,96422.44
2023-05-10T17:33:44.077Z,96422.88
2023-05-10T17:35:46.723Z,96426.75
2023-05-10T17:37:48.764Z,96422.94
2023-05-10T17:39:50.604Z,96432.72
2023-05-10T17:41:52.217Z,96429.97
2023-05-10T17:43:54.014Z,96433.56
2023-05-10T17:45:55.587Z,96433.59
2023-05-10T17:47:57.401Z,96434.22
2023-05-10T17:49:59.217Z,96433.19
2023-05-10T17:52:00.788Z,96431.22
2023-05-10T17:54:02.568Z,96436.97
2023-05-10T17:56:04.315Z,96432.88
2023-05-10T17:58:05.914Z,96433.06
2023-05-10T18:00:09.101Z,96436.09
2023-05-10T18:02:10.677Z,96437.16
2023-05-10T18:04:12.193Z,96440.06
2023-05-10T18:06:14.109Z,96441.84
2023-05-10T18:08:15.936Z,96436.41
2023-05-10T18:10:17.425Z,96435.91
2023-05-10T18:12:19.211Z,96437.75
2023-05-10T18:14:35.895Z,96442.13
2023-05-10T18:16:43.055Z,96437.16
2023-05-10T18:18:44.943Z,96452.03
2023-05-10T18:20:46.786Z,96442.03
2023-05-10T18:22:48.364Z,96438.25
2023-05-10T18:24:49.917Z,96440.34
2023-05-10T18:26:51.986Z,96453.09
2023-05-10T18:28:53.448Z,96440.34
2023-05-10T18:30:55.217Z,96446.91
2023-05-10T18:32:57.943Z,96449.13
2023-05-10T18:34:59.593Z,96445.59
2023-05-10T18:37:02.362Z,96455.50
2023-05-10T18:39:05.504Z,96450.25
2023-05-10T18:41:07.656Z,96450.31
2023-05-10T18:43:09.292Z,96445.84
2023-05-10T18:45:11.570Z,96451.31
2023-05-10T18:47:13.267Z,96454.84
2023-05-10T18:49:14.818Z,96456.19
2023-05-10T18:51:16.637Z,96462.28
2023-05-10T18:53:18.397Z,96464.13
2023-05-10T18:55:20.167Z,96461.72
2023-05-10T18:57:22.101Z,96465.63
2023-05-10T18:59:23.707Z,96461.75
2023-05-10T19:01:25.377Z,96464.19
2023-05-10T19:03:28.512Z,96464.63
2023-05-10T19:05:31.481Z,96470.78
2023-05-10T19:07:33.669Z,96476.34
2023-05-10T19:09:35.552Z,96481.41
2023-05-10T19:11:37.139Z,96474.25
2023-05-10T19:13:38.652Z,96472.97
2023-05-10T19:15:40.844Z,96473.06
2023-05-10T19:17:43.313Z,96473.94
2023-05-10T19:19:45.942Z,96477.78
2023-05-10T19:21:48.093Z,96477.81
2023-05-10T19:23:49.799Z,96482.91
2023-05-10T19:25:51.842Z,96476.81
2023-05-10T19:27:53.424Z,96475.06
2023-05-10T19:29:55.742Z,96479.72
2023-05-10T19:31:58.090Z,96486.25
2023-05-10T19:34:00.857Z,96489.16
2023-05-10T19:36:04.171Z,96483.19
2023-05-10T19:38:05.872Z,96492.09
2023-05-10T19:40:09.593Z,96489.03
2023-05-10T19:42:11.586Z,96492.06
2023-05-10T19:44:13.452Z,96488.78
2023-05-10T19:46:17.117Z,96491.94
2023-05-10T19:48:19.490Z,96490.03
2023-05-10T19:50:21.015Z,96492.84
2023-05-10T19:52:22.680Z,96489.81
2023-05-10T19:54:24.331Z,96490.81
2023-05-10T19:56:26.929Z,96488.97
2023-05-10T19:58:29.776Z,96494.63
2023-05-10T20:00:31.946Z,96493.41
2023-05-10T20:02:33.794Z,96496.25
2023-05-10T20:04:35.751Z,96497.97
2023-05-10T20:06:37.335Z,96505.31
2023-05-10T20:08:39.040Z,96503.13
2023-05-10T20:10:40.530Z,96506.44
2023-05-10T20:12:50.806Z,96494.94
2023-05-10T20:14:52.361Z,96495.56
2023-05-10T20:16:53.904Z,96493.19
2023-05-10T20:18:55.563Z,96504.25
2023-05-10T20:20:59.480Z,96498.41
2023-05-10T20:23:01.324Z,96503.72
2023-05-10T20:25:03.071Z,96500.84
2023-05-10T20:27:04.806Z,96496.19
2023-05-10T20:29:06.984Z,96500.94
2023-05-10T20:31:10.170Z,96501.53
2023-05-10T20:33:11.849Z,96502.38
2023-05-10T20:35:13.577Z,96506.09
2023-05-10T20:37:17.640Z,96503.72
2023-05-10T20:39:19.141Z,96509.56
2023-05-10T20:41:20.866Z,96495.41
2023-05-10T20:43:22.419Z,96497.38
2023-05-10T20:45:24.152Z,96490.75
2023-05-10T20:47:26.353Z,96494.75
2023-05-10T20:49:28.135Z,96502.53
2023-05-10T20:51:30.610Z,96499.00
2023-05-10T20:53:32.230Z,96492.03
2023-05-10T20:55:33.793Z,96497.19
2023-05-10T20:57:35.515Z,96497.38
2023-05-10T20:59:37.257Z,96494.81
2023-05-10T21:01:38.896Z,96500.50
2023-05-10T21:03:41.047Z,96500.25
2023-05-10T21:05:42.613Z,96501.19
2023-05-10T21:07:44.155Z,96502.81
2023-05-10T21:09:45.785Z,96500.59
2023-05-10T21:11:47.334Z,96496.59
2023-05-10T21:13:48.843Z,96502.88
2023-05-10T21:15:50.812Z,96498.13
2023-05-10T21:17:53.857Z,96501.09
2023-05-10T21:19:55.703Z,96495.94
2023-05-10T21:21:58.909Z,96504.06
2023-05-10T21:24:00.605Z,96509.22
2023-05-10T21:26:03.215Z,96496.22
2023-05-10T21:28:05.288Z,96497.72
2023-05-10T21:30:07.721Z,96493.41
2023-05-10T21:32:09.526Z,96490.34
2023-05-10T21:34:11.346Z,96486.66
2023-05-10T21:36:13.180Z,96489.47
2023-05-10T21:38:15.819Z,96489.97
2023-05-10T21:40:17.865Z,96498.94
2023-05-10T21:42:19.856Z,96491.59
2023-05-10T21:44:27.659Z,96495.84
2023-05-10T21:46:29.561Z,96492.50
2023-05-10T21:48:31.187Z,96502.56
2023-05-10T21:50:32.690Z,96497.78
2023-05-10T21:52:34.216Z,96500.25
2023-05-10T21:54:37.191Z,96495.78
2023-05-10T21:56:38.729Z,96497.66
2023-05-10T21:58:40.712Z,96492.88
2023-05-10T22:00:42.313Z,96502.66
2023-05-10T22:02:43.980Z,96497.53
2023-05-10T22:04:45.775Z,96493.63
2023-05-10T22:06:48.934Z,96502.25
2023-05-10T22:08:51.014Z,96500.75
2023-05-10T22:10:52.792Z,96497.59
2023-05-10T22:12:54.382Z,96488.94
2023-05-10T22:15:09.496Z,96494.59
2023-05-10T22:17:12.038Z,96493.53
2023-05-10T22:19:13.594Z,96488.09
2023-05-10T22:21:15.184Z,96492.19
2023-05-10T22:23:16.720Z,96491.69
2023-05-10T22:25:18.509Z,96500.75
2023-05-10T22:27:20.040Z,96489.41
2023-05-10T22:29:22.513Z,96498.50
2023-05-10T22:31:24.113Z,96497.19
2023-05-10T22:33:25.641Z,96496.53
2023-05-10T22:35:27.555Z,96494.09
2023-05-10T22:37:29.108Z,96493.91
2023-05-10T22:39:30.650Z,96498.53
2023-05-10T22:41:33.266Z,96498.69
2023-05-10T22:43:34.767Z,96495.81
2023-05-10T22:45:36.366Z,96499.41
2023-05-10T22:47:38.063Z,96495.75
2023-05-10T22:49:39.594Z,96497.84
2023-05-10T22:51:41.173Z,96499.41
2023-05-10T22:53:43.344Z,96491.81
2023-05-10T22:55:45.457Z,96493.75
2023-05-10T22:57:47.299Z,96489.19
2023-05-10T22:59:49.121Z,96503.13
2023-05-10T23:01:50.991Z,96491.94
2023-05-10T23:03:52.679Z,96491.81
2023-05-10T23:05:54.282Z,96497.03
2023-05-10T23:07:55.812Z,96506.97
2023-05-10T23:09:57.333Z,96497.63
2023-05-10T23:11:58.883Z,96494.38
2023-05-10T23:14:00.446Z,96500.69
2023-05-10T23:16:06.533Z,96498.59
2023-05-10T23:18:09.508Z,96491.22
2023-05-10T23:20:11.902Z,96494.88
2023-05-10T23:22:13.871Z,96491.22
2023-05-10T23:24:15.493Z,96501.25
2023-05-10T23:26:17.033Z,96495.94
2023-05-10T23:28:19.187Z,96501.69
2023-05-10T23:30:20.931Z,96499.72
2023-05-10T23:32:22.848Z,96503.88
2023-05-10T23:34:24.521Z,96491.97
2023-05-10T23:36:26.280Z,96495.34
2023-05-10T23:38:28.011Z,96493.53
2023-05-10T23:40:30.035Z,96503.16
2023-05-10T23:42:32.696Z,96495.88
2023-05-10T23:44:34.196Z,96499.28
2023-05-10T23:46:36.015Z,96489.50
2023-05-10T23:48:37.543Z,96496.69
2023-05-10T23:50:44.364Z,96485.50
2023-05-10T23:52:45.924Z,96496.84
2023-05-10T23:54:47.509Z,96494.84
2023-05-10T23:56:51.711Z,96497.00
2023-05-10T23:58:53.209Z,96498.13
